sensor_id;sensor_type;location;lat;lon;timestamp;P1;durP1;ratioP1;P2;durP2;ratioP2
67715;SDS011;54508;43.238;25.306;2024-01-30T00:01:09;2.80;;;2.30;;
67715;SDS011;54508;43.238;25.306;2024-01-30T00:03:34;2.70;;;2.13;;
67715;SDS011;54508;43.238;25.306;2024-01-30T00:05:59;2.60;;;2.30;;
67715;SDS011;54508;43.238;25.306;2024-01-30T00:08:25;2.95;;;2.42;;
67715;SDS011;54508;43.238;25.306;2024-01-30T00:10:51;2.83;;;2.20;;
67715;SDS011;54508;43.238;25.306;2024-01-30T00:13:16;2.78;;;2.10;;
67715;SDS011;54508;43.238;25.306;2024-01-30T00:15:44;3.22;;;2.30;;
67715;SDS011;54508;43.238;25.306;2024-01-30T00:18:09;2.55;;;2.00;;
67715;SDS011;54508;43.238;25.306;2024-01-30T00:20:35;2.17;;;1.93;;
67715;SDS011;54508;43.238;25.306;2024-01-30T00:23:00;3.53;;;2.40;;
67715;SDS011;54508;43.238;25.306;2024-01-30T00:25:26;2.38;;;1.90;;
67715;SDS011;54508;43.238;25.306;2024-01-30T00:27:52;2.50;;;2.20;;
67715;SDS011;54508;43.238;25.306;2024-01-30T00:30:17;3.37;;;2.10;;
67715;SDS011;54508;43.238;25.306;2024-01-30T00:32:42;2.47;;;2.03;;
67715;SDS011;54508;43.238;25.306;2024-01-30T00:35:08;3.00;;;2.07;;
67715;SDS011;54508;43.238;25.306;2024-01-30T00:37:35;2.78;;;2.20;;
67715;SDS011;54508;43.238;25.306;2024-01-30T00:40:01;3.00;;;2.33;;
67715;SDS011;54508;43.238;25.306;2024-01-30T00:42:26;2.33;;;1.95;;
67715;SDS011;54508;43.238;25.306;2024-01-30T00:44:51;2.13;;;1.93;;
67715;SDS011;54508;43.238;25.306;2024-01-30T00:47:17;2.50;;;2.10;;
67715;SDS011;54508;43.238;25.306;2024-01-30T00:49:42;2.33;;;2.00;;
67715;SDS011;54508;43.238;25.306;2024-01-30T00:52:08;3.00;;;1.90;;
67715;SDS011;54508;43.238;25.306;2024-01-30T00:54:33;2.33;;;1.93;;
67715;SDS011;54508;43.238;25.306;2024-01-30T00:56:59;2.13;;;1.83;;
67715;SDS011;54508;43.238;25.306;2024-01-30T00:59:24;2.57;;;2.00;;
67715;SDS011;54508;43.238;25.306;2024-01-30T01:01:50;2.45;;;2.17;;
67715;SDS011;54508;43.238;25.306;2024-01-30T01:04:15;2.50;;;1.90;;
67715;SDS011;54508;43.238;25.306;2024-01-30T01:06:41;2.70;;;2.22;;
67715;SDS011;54508;43.238;25.306;2024-01-30T01:09:09;3.10;;;2.40;;
67715;SDS011;54508;43.238;25.306;2024-01-30T01:11:36;2.93;;;2.33;;
67715;SDS011;54508;43.238;25.306;2024-01-30T01:14:03;3.30;;;2.22;;
67715;SDS011;54508;43.238;25.306;2024-01-30T01:16:29;3.55;;;2.33;;
67715;SDS011;54508;43.238;25.306;2024-01-30T01:18:54;2.63;;;2.23;;
67715;SDS011;54508;43.238;25.306;2024-01-30T01:21:20;2.92;;;2.50;;
67715;SDS011;54508;43.238;25.306;2024-01-30T01:23:45;2.77;;;2.50;;
67715;SDS011;54508;43.238;25.306;2024-01-30T01:26:10;2.67;;;2.00;;
67715;SDS011;54508;43.238;25.306;2024-01-30T01:28:36;3.43;;;2.30;;
67715;SDS011;54508;43.238;25.306;2024-01-30T01:31:01;2.67;;;2.25;;
67715;SDS011;54508;43.238;25.306;2024-01-30T01:33:33;2.83;;;2.13;;
67715;SDS011;54508;43.238;25.306;2024-01-30T01:35:59;2.33;;;2.00;;
67715;SDS011;54508;43.238;25.306;2024-01-30T01:38:27;2.38;;;2.17;;
67715;SDS011;54508;43.238;25.306;2024-01-30T01:40:53;3.23;;;2.17;;
67715;SDS011;54508;43.238;25.306;2024-01-30T01:43:18;2.70;;;2.13;;
67715;SDS011;54508;43.238;25.306;2024-01-30T01:45:44;2.42;;;1.80;;
67715;SDS011;54508;43.238;25.306;2024-01-30T01:48:10;2.70;;;1.88;;
67715;SDS011;54508;43.238;25.306;2024-01-30T01:50:37;4.13;;;2.10;;
67715;SDS011;54508;43.238;25.306;2024-01-30T01:53:03;2.67;;;2.40;;
67715;SDS011;54508;43.238;25.306;2024-01-30T01:55:28;2.63;;;2.10;;
67715;SDS011;54508;43.238;25.306;2024-01-30T01:57:54;2.53;;;2.22;;
67715;SDS011;54508;43.238;25.306;2024-01-30T02:00:20;3.20;;;2.33;;
67715;SDS011;54508;43.238;25.306;2024-01-30T02:02:45;2.97;;;2.60;;
67715;SDS011;54508;43.238;25.306;2024-01-30T02:05:12;3.20;;;2.53;;
67715;SDS011;54508;43.238;25.306;2024-01-30T02:07:38;3.33;;;2.47;;
67715;SDS011;54508;43.238;25.306;2024-01-30T02:10:03;3.30;;;2.35;;
67715;SDS011;54508;43.238;25.306;2024-01-30T02:12:29;3.03;;;2.27;;
67715;SDS011;54508;43.238;25.306;2024-01-30T02:14:55;2.63;;;2.15;;
67715;SDS011;54508;43.238;25.306;2024-01-30T02:17:20;2.87;;;2.33;;
67715;SDS011;54508;43.238;25.306;2024-01-30T02:19:48;3.22;;;2.47;;
67715;SDS011;54508;43.238;25.306;2024-01-30T02:22:13;2.97;;;2.33;;
67715;SDS011;54508;43.238;25.306;2024-01-30T02:24:39;2.80;;;2.40;;
67715;SDS011;54508;43.238;25.306;2024-01-30T02:27:05;2.70;;;2.30;;
67715;SDS011;54508;43.238;25.306;2024-01-30T02:29:30;2.73;;;2.43;;
67715;SDS011;54508;43.238;25.306;2024-01-30T02:31:56;3.25;;;2.55;;
67715;SDS011;54508;43.238;25.306;2024-01-30T02:34:21;2.90;;;2.27;;
67715;SDS011;54508;43.238;25.306;2024-01-30T02:36:46;3.00;;;2.40;;
67715;SDS011;54508;43.238;25.306;2024-01-30T02:39:12;2.87;;;2.57;;
67715;SDS011;54508;43.238;25.306;2024-01-30T02:41:37;2.97;;;2.47;;
67715;SDS011;54508;43.238;25.306;2024-01-30T02:44:03;3.35;;;2.78;;
67715;SDS011;54508;43.238;25.306;2024-01-30T02:46:29;3.10;;;2.50;;
67715;SDS011;54508;43.238;25.306;2024-01-30T02:48:54;2.50;;;2.30;;
67715;SDS011;54508;43.238;25.306;2024-01-30T02:51:19;3.37;;;2.30;;
67715;SDS011;54508;43.238;25.306;2024-01-30T02:53:45;2.53;;;2.33;;
67715;SDS011;54508;43.238;25.306;2024-01-30T02:56:10;3.00;;;2.63;;
67715;SDS011;54508;43.238;25.306;2024-01-30T02:58:38;4.85;;;2.80;;
67715;SDS011;54508;43.238;25.306;2024-01-30T03:01:04;3.00;;;2.65;;
67715;SDS011;54508;43.238;25.306;2024-01-30T03:03:29;3.37;;;2.50;;
67715;SDS011;54508;43.238;25.306;2024-01-30T03:05:55;3.57;;;2.80;;
67715;SDS011;54508;43.238;25.306;2024-01-30T03:08:20;2.30;;;2.03;;
67715;SDS011;54508;43.238;25.306;2024-01-30T03:10:46;3.35;;;2.60;;
67715;SDS011;54508;43.238;25.306;2024-01-30T03:13:11;2.53;;;2.30;;
67715;SDS011;54508;43.238;25.306;2024-01-30T03:15:37;3.20;;;2.30;;
67715;SDS011;54508;43.238;25.306;2024-01-30T03:18:02;2.30;;;2.10;;
67715;SDS011;54508;43.238;25.306;2024-01-30T03:20:31;2.67;;;2.10;;
67715;SDS011;54508;43.238;25.306;2024-01-30T03:22:56;2.73;;;2.40;;
67715;SDS011;54508;43.238;25.306;2024-01-30T03:25:22;3.15;;;2.67;;
67715;SDS011;54508;43.238;25.306;2024-01-30T03:27:48;2.50;;;2.17;;
67715;SDS011;54508;43.238;25.306;2024-01-30T03:30:14;2.65;;;2.28;;
67715;SDS011;54508;43.238;25.306;2024-01-30T03:32:39;3.23;;;2.93;;
67715;SDS011;54508;43.238;25.306;2024-01-30T03:35:05;3.22;;;2.67;;
67715;SDS011;54508;43.238;25.306;2024-01-30T03:37:30;3.70;;;2.43;;
67715;SDS011;54508;43.238;25.306;2024-01-30T03:39:56;4.20;;;2.97;;
67715;SDS011;54508;43.238;25.306;2024-01-30T03:42:22;3.00;;;2.45;;
67715;SDS011;54508;43.238;25.306;2024-01-30T03:44:47;2.90;;;2.40;;
67715;SDS011;54508;43.238;25.306;2024-01-30T03:47:13;3.22;;;2.90;;
67715;SDS011;54508;43.238;25.306;2024-01-30T03:49:38;3.07;;;2.47;;
67715;SDS011;54508;43.238;25.306;2024-01-30T03:52:04;3.90;;;2.70;;
67715;SDS011;54508;43.238;25.306;2024-01-30T03:54:29;3.57;;;2.80;;
67715;SDS011;54508;43.238;25.306;2024-01-30T03:56:54;2.95;;;2.50;;
67715;SDS011;54508;43.238;25.306;2024-01-30T03:59:20;3.15;;;2.75;;
67715;SDS011;54508;43.238;25.306;2024-01-30T04:01:49;2.83;;;2.53;;
67715;SDS011;54508;43.238;25.306;2024-01-30T04:04:17;2.80;;;2.50;;
67715;SDS011;54508;43.238;25.306;2024-01-30T04:06:43;3.88;;;2.47;;
67715;SDS011;54508;43.238;25.306;2024-01-30T04:09:09;2.72;;;2.42;;
67715;SDS011;54508;43.238;25.306;2024-01-30T04:11:34;3.08;;;2.47;;
67715;SDS011;54508;43.238;25.306;2024-01-30T04:14:00;2.90;;;2.60;;
67715;SDS011;54508;43.238;25.306;2024-01-30T04:16:25;3.53;;;2.63;;
67715;SDS011;54508;43.238;25.306;2024-01-30T04:18:51;4.03;;;2.85;;
67715;SDS011;54508;43.238;25.306;2024-01-30T04:21:17;3.20;;;2.77;;
67715;SDS011;54508;43.238;25.306;2024-01-30T04:23:42;3.73;;;2.70;;
67715;SDS011;54508;43.238;25.306;2024-01-30T04:26:08;11.50;;;2.95;;
67715;SDS011;54508;43.238;25.306;2024-01-30T04:28:33;3.67;;;2.70;;
67715;SDS011;54508;43.238;25.306;2024-01-30T04:30:58;4.50;;;3.40;;
67715;SDS011;54508;43.238;25.306;2024-01-30T04:33:24;5.90;;;3.00;;
67715;SDS011;54508;43.238;25.306;2024-01-30T04:35:49;4.57;;;2.47;;
67715;SDS011;54508;43.238;25.306;2024-01-30T04:38:15;3.05;;;2.42;;
67715;SDS011;54508;43.238;25.306;2024-01-30T04:40:40;3.40;;;3.00;;
67715;SDS011;54508;43.238;25.306;2024-01-30T04:43:05;3.43;;;2.40;;
67715;SDS011;54508;43.238;25.306;2024-01-30T04:45:31;3.33;;;2.87;;
67715;SDS011;54508;43.238;25.306;2024-01-30T04:47:56;2.83;;;2.47;;
67715;SDS011;54508;43.238;25.306;2024-01-30T04:50:22;3.37;;;2.30;;
67715;SDS011;54508;43.238;25.306;2024-01-30T04:52:48;3.97;;;2.55;;
67715;SDS011;54508;43.238;25.306;2024-01-30T04:55:14;3.47;;;2.30;;
67715;SDS011;54508;43.238;25.306;2024-01-30T04:57:39;3.67;;;2.13;;
67715;SDS011;54508;43.238;25.306;2024-01-30T05:00:05;3.28;;;2.45;;
67715;SDS011;54508;43.238;25.306;2024-01-30T05:02:31;2.20;;;1.98;;
67715;SDS011;54508;43.238;25.306;2024-01-30T05:04:56;2.33;;;2.03;;
67715;SDS011;54508;43.238;25.306;2024-01-30T05:07:23;2.60;;;1.95;;
67715;SDS011;54508;43.238;25.306;2024-01-30T05:09:49;2.20;;;1.90;;
67715;SDS011;54508;43.238;25.306;2024-01-30T05:12:15;2.87;;;2.10;;
67715;SDS011;54508;43.238;25.306;2024-01-30T05:14:40;3.97;;;2.50;;
67715;SDS011;54508;43.238;25.306;2024-01-30T05:17:05;2.97;;;2.45;;
67715;SDS011;54508;43.238;25.306;2024-01-30T05:19:32;2.53;;;2.20;;
67715;SDS011;54508;43.238;25.306;2024-01-30T05:21:58;2.92;;;2.17;;
67715;SDS011;54508;43.238;25.306;2024-01-30T05:24:23;2.77;;;2.20;;
67715;SDS011;54508;43.238;25.306;2024-01-30T05:26:49;2.63;;;2.00;;
67715;SDS011;54508;43.238;25.306;2024-01-30T05:29:16;3.05;;;2.13;;
67715;SDS011;54508;43.238;25.306;2024-01-30T05:31:41;2.60;;;1.90;;
67715;SDS011;54508;43.238;25.306;2024-01-30T05:34:07;2.20;;;2.00;;
67715;SDS011;54508;43.238;25.306;2024-01-30T05:36:33;2.70;;;1.75;;
67715;SDS011;54508;43.238;25.306;2024-01-30T05:38:58;2.23;;;1.60;;
67715;SDS011;54508;43.238;25.306;2024-01-30T05:41:24;2.80;;;2.07;;
67715;SDS011;54508;43.238;25.306;2024-01-30T05:43:49;2.75;;;2.20;;
67715;SDS011;54508;43.238;25.306;2024-01-30T05:46:15;2.40;;;1.90;;
67715;SDS011;54508;43.238;25.306;2024-01-30T05:48:44;2.40;;;2.00;;
67715;SDS011;54508;43.238;25.306;2024-01-30T05:51:10;3.47;;;1.90;;
67715;SDS011;54508;43.238;25.306;2024-01-30T05:53:35;3.60;;;2.27;;
67715;SDS011;54508;43.238;25.306;2024-01-30T05:56:01;2.70;;;2.35;;
67715;SDS011;54508;43.238;25.306;2024-01-30T05:58:27;2.03;;;1.80;;
67715;SDS011;54508;43.238;25.306;2024-01-30T06:00:52;2.58;;;2.30;;
67715;SDS011;54508;43.238;25.306;2024-01-30T06:03:18;4.00;;;2.57;;
67715;SDS011;54508;43.238;25.306;2024-01-30T06:05:43;2.30;;;2.00;;
67715;SDS011;54508;43.238;25.306;2024-01-30T06:08:09;5.07;;;2.27;;
67715;SDS011;54508;43.238;25.306;2024-01-30T06:10:34;2.90;;;2.03;;
67715;SDS011;54508;43.238;25.306;2024-01-30T06:12:59;2.88;;;2.03;;
67715;SDS011;54508;43.238;25.306;2024-01-30T06:15:25;1.97;;;1.70;;
67715;SDS011;54508;43.238;25.306;2024-01-30T06:17:51;2.30;;;1.98;;
67715;SDS011;54508;43.238;25.306;2024-01-30T06:20:16;2.87;;;2.20;;
67715;SDS011;54508;43.238;25.306;2024-01-30T06:22:42;2.28;;;2.00;;
67715;SDS011;54508;43.238;25.306;2024-01-30T06:25:08;10.03;;;2.97;;
67715;SDS011;54508;43.238;25.306;2024-01-30T06:27:33;24.67;;;5.13;;
67715;SDS011;54508;43.238;25.306;2024-01-30T06:29:59;13.90;;;9.53;;
67715;SDS011;54508;43.238;25.306;2024-01-30T06:32:24;18.03;;;9.37;;
67715;SDS011;54508;43.238;25.306;2024-01-30T06:34:49;14.38;;;10.77;;
67715;SDS011;54508;43.238;25.306;2024-01-30T06:37:15;21.07;;;13.03;;
67715;SDS011;54508;43.238;25.306;2024-01-30T06:39:40;22.03;;;14.20;;
67715;SDS011;54508;43.238;25.306;2024-01-30T06:42:06;18.33;;;12.27;;
67715;SDS011;54508;43.238;25.306;2024-01-30T06:44:31;17.80;;;10.85;;
67715;SDS011;54508;43.238;25.306;2024-01-30T06:46:56;18.38;;;8.90;;
67715;SDS011;54508;43.238;25.306;2024-01-30T06:49:22;11.90;;;7.13;;
67715;SDS011;54508;43.238;25.306;2024-01-30T06:51:47;9.03;;;6.23;;
67715;SDS011;54508;43.238;25.306;2024-01-30T06:54:13;10.93;;;5.53;;
67715;SDS011;54508;43.238;25.306;2024-01-30T06:56:38;10.55;;;5.05;;
67715;SDS011;54508;43.238;25.306;2024-01-30T06:59:04;8.37;;;4.80;;
67715;SDS011;54508;43.238;25.306;2024-01-30T07:01:30;10.15;;;5.07;;
67715;SDS011;54508;43.238;25.306;2024-01-30T07:03:55;5.13;;;3.93;;
67715;SDS011;54508;43.238;25.306;2024-01-30T07:06:21;5.97;;;3.92;;
67715;SDS011;54508;43.238;25.306;2024-01-30T07:08:47;8.35;;;4.18;;
67715;SDS011;54508;43.238;25.306;2024-01-30T07:11:20;5.53;;;3.80;;
67715;SDS011;54508;43.238;25.306;2024-01-30T07:13:50;7.25;;;3.72;;
67715;SDS011;54508;43.238;25.306;2024-01-30T07:16:16;6.70;;;4.07;;
67715;SDS011;54508;43.238;25.306;2024-01-30T07:18:41;4.93;;;3.63;;
67715;SDS011;54508;43.238;25.306;2024-01-30T07:21:07;5.00;;;3.80;;
67715;SDS011;54508;43.238;25.306;2024-01-30T07:23:32;4.77;;;3.37;;
67715;SDS011;54508;43.238;25.306;2024-01-30T07:26:00;10.85;;;5.15;;
67715;SDS011;54508;43.238;25.306;2024-01-30T07:28:26;7.78;;;4.80;;
67715;SDS011;54508;43.238;25.306;2024-01-30T07:30:51;13.47;;;6.10;;
67715;SDS011;54508;43.238;25.306;2024-01-30T07:33:17;18.88;;;7.35;;
67715;SDS011;54508;43.238;25.306;2024-01-30T07:35:42;14.68;;;6.57;;
67715;SDS011;54508;43.238;25.306;2024-01-30T07:38:08;14.33;;;5.77;;
67715;SDS011;54508;43.238;25.306;2024-01-30T07:40:34;10.43;;;4.95;;
67715;SDS011;54508;43.238;25.306;2024-01-30T07:42:59;7.00;;;4.10;;
67715;SDS011;54508;43.238;25.306;2024-01-30T07:45:25;7.57;;;4.32;;
67715;SDS011;54508;43.238;25.306;2024-01-30T07:47:52;14.77;;;7.47;;
67715;SDS011;54508;43.238;25.306;2024-01-30T07:50:18;15.63;;;7.07;;
67715;SDS011;54508;43.238;25.306;2024-01-30T07:52:44;14.40;;;6.10;;
67715;SDS011;54508;43.238;25.306;2024-01-30T07:55:09;11.32;;;5.22;;
67715;SDS011;54508;43.238;25.306;2024-01-30T07:57:35;10.03;;;5.07;;
67715;SDS011;54508;43.238;25.306;2024-01-30T08:00:03;9.00;;;4.50;;
67715;SDS011;54508;43.238;25.306;2024-01-30T08:02:30;7.55;;;5.43;;
67715;SDS011;54508;43.238;25.306;2024-01-30T08:04:56;11.37;;;4.43;;
67715;SDS011;54508;43.238;25.306;2024-01-30T08:07:21;9.20;;;5.23;;
67715;SDS011;54508;43.238;25.306;2024-01-30T08:09:47;13.57;;;4.40;;
67715;SDS011;54508;43.238;25.306;2024-01-30T08:12:13;12.37;;;5.10;;
67715;SDS011;54508;43.238;25.306;2024-01-30T08:14:38;13.50;;;7.15;;
67715;SDS011;54508;43.238;25.306;2024-01-30T08:17:05;21.33;;;7.70;;
67715;SDS011;54508;43.238;25.306;2024-01-30T08:19:32;10.90;;;5.40;;
67715;SDS011;54508;43.238;25.306;2024-01-30T08:21:58;8.25;;;4.72;;
67715;SDS011;54508;43.238;25.306;2024-01-30T08:24:23;10.33;;;4.67;;
67715;SDS011;54508;43.238;25.306;2024-01-30T08:26:49;14.50;;;4.85;;
67715;SDS011;54508;43.238;25.306;2024-01-30T08:29:14;17.23;;;6.23;;
67715;SDS011;54508;43.238;25.306;2024-01-30T08:31:40;11.93;;;5.20;;
67715;SDS011;54508;43.238;25.306;2024-01-30T08:34:05;14.07;;;8.53;;
67715;SDS011;54508;43.238;25.306;2024-01-30T08:36:30;18.02;;;9.65;;
67715;SDS011;54508;43.238;25.306;2024-01-30T08:38:56;14.68;;;7.88;;
67715;SDS011;54508;43.238;25.306;2024-01-30T08:41:21;17.03;;;7.27;;
67715;SDS011;54508;43.238;25.306;2024-01-30T08:43:47;11.70;;;6.30;;
67715;SDS011;54508;43.238;25.306;2024-01-30T08:46:12;13.73;;;6.63;;
67715;SDS011;54508;43.238;25.306;2024-01-30T08:48:38;11.45;;;5.97;;
67715;SDS011;54508;43.238;25.306;2024-01-30T08:51:03;11.90;;;4.67;;
67715;SDS011;54508;43.238;25.306;2024-01-30T08:53:33;13.13;;;6.43;;
67715;SDS011;54508;43.238;25.306;2024-01-30T08:55:58;5.97;;;4.83;;
67715;SDS011;54508;43.238;25.306;2024-01-30T08:58:24;5.32;;;4.15;;
67715;SDS011;54508;43.238;25.306;2024-01-30T09:00:49;10.45;;;5.68;;
67715;SDS011;54508;43.238;25.306;2024-01-30T09:03:16;10.27;;;6.32;;
67715;SDS011;54508;43.238;25.306;2024-01-30T09:05:42;10.90;;;6.35;;
67715;SDS011;54508;43.238;25.306;2024-01-30T09:08:07;7.53;;;5.40;;
67715;SDS011;54508;43.238;25.306;2024-01-30T09:10:33;7.10;;;4.80;;
67715;SDS011;54508;43.238;25.306;2024-01-30T09:12:58;6.97;;;5.00;;
67715;SDS011;54508;43.238;25.306;2024-01-30T09:15:23;9.43;;;4.75;;
67715;SDS011;54508;43.238;25.306;2024-01-30T09:17:49;6.60;;;4.33;;
67715;SDS011;54508;43.238;25.306;2024-01-30T09:20:15;5.72;;;4.57;;
67715;SDS011;54508;43.238;25.306;2024-01-30T09:22:41;4.97;;;4.27;;
67715;SDS011;54508;43.238;25.306;2024-01-30T09:25:06;6.57;;;4.57;;
67715;SDS011;54508;43.238;25.306;2024-01-30T09:27:32;4.30;;;3.40;;
67715;SDS011;54508;43.238;25.306;2024-01-30T09:29:57;10.40;;;4.75;;
67715;SDS011;54508;43.238;25.306;2024-01-30T09:32:23;9.27;;;4.07;;
67715;SDS011;54508;43.238;25.306;2024-01-30T09:34:48;6.97;;;4.80;;
67715;SDS011;54508;43.238;25.306;2024-01-30T09:37:13;5.87;;;4.50;;
67715;SDS011;54508;43.238;25.306;2024-01-30T09:39:40;6.18;;;4.65;;
67715;SDS011;54508;43.238;25.306;2024-01-30T09:42:11;10.02;;;5.60;;
67715;SDS011;54508;43.238;25.306;2024-01-30T09:44:50;6.72;;;4.72;;
67715;SDS011;54508;43.238;25.306;2024-01-30T09:47:17;10.85;;;5.00;;
67715;SDS011;54508;43.238;25.306;2024-01-30T09:49:43;7.22;;;4.90;;
67715;SDS011;54508;43.238;25.306;2024-01-30T09:52:09;8.67;;;4.83;;
67715;SDS011;54508;43.238;25.306;2024-01-30T09:54:34;7.10;;;4.05;;
67715;SDS011;54508;43.238;25.306;2024-01-30T09:57:00;6.37;;;4.07;;
67715;SDS011;54508;43.238;25.306;2024-01-30T09:59:25;5.60;;;4.28;;
67715;SDS011;54508;43.238;25.306;2024-01-30T10:01:51;8.47;;;4.10;;
67715;SDS011;54508;43.238;25.306;2024-01-30T10:04:17;10.37;;;4.33;;
67715;SDS011;54508;43.238;25.306;2024-01-30T10:06:42;10.52;;;4.53;;
67715;SDS011;54508;43.238;25.306;2024-01-30T10:09:08;9.70;;;4.07;;
67715;SDS011;54508;43.238;25.306;2024-01-30T10:11:34;7.75;;;4.43;;
67715;SDS011;54508;43.238;25.306;2024-01-30T10:14:01;6.60;;;4.15;;
67715;SDS011;54508;43.238;25.306;2024-01-30T10:16:26;7.63;;;4.87;;
67715;SDS011;54508;43.238;25.306;2024-01-30T10:18:52;7.40;;;4.47;;
67715;SDS011;54508;43.238;25.306;2024-01-30T10:21:17;5.67;;;4.20;;
67715;SDS011;54508;43.238;25.306;2024-01-30T10:23:43;6.50;;;4.00;;
67715;SDS011;54508;43.238;25.306;2024-01-30T10:26:09;5.32;;;4.32;;
67715;SDS011;54508;43.238;25.306;2024-01-30T10:28:35;7.80;;;4.53;;
67715;SDS011;54508;43.238;25.306;2024-01-30T10:31:01;7.73;;;4.60;;
67715;SDS011;54508;43.238;25.306;2024-01-30T10:33:29;6.35;;;4.35;;
67715;SDS011;54508;43.238;25.306;2024-01-30T10:36:00;7.53;;;3.92;;
67715;SDS011;54508;43.238;25.306;2024-01-30T10:38:30;5.20;;;3.95;;
67715;SDS011;54508;43.238;25.306;2024-01-30T10:40:57;8.60;;;4.03;;
67715;SDS011;54508;43.238;25.306;2024-01-30T10:43:24;5.40;;;4.00;;
67715;SDS011;54508;43.238;25.306;2024-01-30T10:46:00;6.03;;;3.85;;
67715;SDS011;54508;43.238;25.306;2024-01-30T10:48:36;5.10;;;3.45;;
67715;SDS011;54508;43.238;25.306;2024-01-30T10:51:05;4.07;;;2.55;;
67715;SDS011;54508;43.238;25.306;2024-01-30T10:53:30;7.28;;;3.90;;
67715;SDS011;54508;43.238;25.306;2024-01-30T10:55:56;5.57;;;3.67;;
67715;SDS011;54508;43.238;25.306;2024-01-30T10:58:22;5.05;;;3.00;;
67715;SDS011;54508;43.238;25.306;2024-01-30T11:00:48;4.35;;;3.28;;
67715;SDS011;54508;43.238;25.306;2024-01-30T11:03:15;5.63;;;3.10;;
67715;SDS011;54508;43.238;25.306;2024-01-30T11:05:40;5.32;;;2.95;;
67715;SDS011;54508;43.238;25.306;2024-01-30T11:08:21;4.20;;;3.10;;
67715;SDS011;54508;43.238;25.306;2024-01-30T11:10:48;5.28;;;3.22;;
67715;SDS011;54508;43.238;25.306;2024-01-30T11:13:13;5.27;;;3.03;;
67715;SDS011;54508;43.238;25.306;2024-01-30T11:15:40;5.28;;;3.38;;
67715;SDS011;54508;43.238;25.306;2024-01-30T11:18:05;4.28;;;2.97;;
67715;SDS011;54508;43.238;25.306;2024-01-30T11:20:31;3.83;;;2.90;;
67715;SDS011;54508;43.238;25.306;2024-01-30T11:22:57;3.75;;;3.20;;
67715;SDS011;54508;43.238;25.306;2024-01-30T11:25:24;4.43;;;3.00;;
67715;SDS011;54508;43.238;25.306;2024-01-30T11:27:50;3.90;;;3.00;;
67715;SDS011;54508;43.238;25.306;2024-01-30T11:30:27;4.33;;;2.90;;
67715;SDS011;54508;43.238;25.306;2024-01-30T11:33:00;3.55;;;2.83;;
67715;SDS011;54508;43.238;25.306;2024-01-30T11:35:30;3.00;;;2.10;;
67715;SDS011;54508;43.238;25.306;2024-01-30T11:37:57;7.35;;;2.80;;
67715;SDS011;54508;43.238;25.306;2024-01-30T11:40:23;11.27;;;2.83;;
67715;SDS011;54508;43.238;25.306;2024-01-30T11:42:51;4.20;;;2.67;;
67715;SDS011;54508;43.238;25.306;2024-01-30T11:45:17;6.85;;;2.53;;
67715;SDS011;54508;43.238;25.306;2024-01-30T11:47:42;4.32;;;2.47;;
67715;SDS011;54508;43.238;25.306;2024-01-30T11:50:08;3.53;;;2.20;;
67715;SDS011;54508;43.238;25.306;2024-01-30T11:52:35;4.57;;;2.60;;
67715;SDS011;54508;43.238;25.306;2024-01-30T11:55:01;5.67;;;2.47;;
67715;SDS011;54508;43.238;25.306;2024-01-30T11:57:27;6.30;;;2.38;;
67715;SDS011;54508;43.238;25.306;2024-01-30T11:59:53;3.83;;;2.15;;
67715;SDS011;54508;43.238;25.306;2024-01-30T12:02:19;3.43;;;2.00;;
67715;SDS011;54508;43.238;25.306;2024-01-30T12:04:44;4.80;;;2.40;;
67715;SDS011;54508;43.238;25.306;2024-01-30T12:07:10;3.67;;;2.38;;
67715;SDS011;54508;43.238;25.306;2024-01-30T12:09:36;5.03;;;3.38;;
67715;SDS011;54508;43.238;25.306;2024-01-30T12:12:02;7.85;;;3.25;;
67715;SDS011;54508;43.238;25.306;2024-01-30T12:14:27;8.77;;;2.80;;
67715;SDS011;54508;43.238;25.306;2024-01-30T12:16:53;5.77;;;3.00;;
67715;SDS011;54508;43.238;25.306;2024-01-30T12:19:24;7.38;;;3.10;;
67715;SDS011;54508;43.238;25.306;2024-01-30T12:21:54;4.35;;;2.83;;
67715;SDS011;54508;43.238;25.306;2024-01-30T12:24:21;7.37;;;2.80;;
67715;SDS011;54508;43.238;25.306;2024-01-30T12:26:48;7.50;;;2.90;;
67715;SDS011;54508;43.238;25.306;2024-01-30T12:29:14;8.15;;;2.70;;
67715;SDS011;54508;43.238;25.306;2024-01-30T12:31:41;6.53;;;3.17;;
67715;SDS011;54508;43.238;25.306;2024-01-30T12:34:07;5.68;;;3.10;;
67715;SDS011;54508;43.238;25.306;2024-01-30T12:36:33;4.53;;;2.80;;
67715;SDS011;54508;43.238;25.306;2024-01-30T12:38:59;5.35;;;3.00;;
67715;SDS011;54508;43.238;25.306;2024-01-30T12:41:25;4.45;;;2.83;;
67715;SDS011;54508;43.238;25.306;2024-01-30T12:43:54;7.55;;;2.70;;
67715;SDS011;54508;43.238;25.306;2024-01-30T12:46:19;5.35;;;2.92;;
67715;SDS011;54508;43.238;25.306;2024-01-30T12:48:45;3.57;;;2.50;;
67715;SDS011;54508;43.238;25.306;2024-01-30T12:51:11;3.40;;;2.53;;
67715;SDS011;54508;43.238;25.306;2024-01-30T12:53:36;6.30;;;2.60;;
67715;SDS011;54508;43.238;25.306;2024-01-30T12:56:02;3.73;;;2.50;;
67715;SDS011;54508;43.238;25.306;2024-01-30T12:58:28;8.43;;;2.45;;
67715;SDS011;54508;43.238;25.306;2024-01-30T13:00:53;6.00;;;2.80;;
67715;SDS011;54508;43.238;25.306;2024-01-30T13:03:19;3.92;;;2.97;;
67715;SDS011;54508;43.238;25.306;2024-01-30T13:05:44;3.47;;;2.87;;
67715;SDS011;54508;43.238;25.306;2024-01-30T13:08:10;5.03;;;2.83;;
67715;SDS011;54508;43.238;25.306;2024-01-30T13:10:35;7.27;;;3.40;;
67715;SDS011;54508;43.238;25.306;2024-01-30T13:13:01;3.72;;;3.03;;
67715;SDS011;54508;43.238;25.306;2024-01-30T13:15:27;9.38;;;3.05;;
67715;SDS011;54508;43.238;25.306;2024-01-30T13:17:52;5.88;;;3.45;;
67715;SDS011;54508;43.238;25.306;2024-01-30T13:20:19;4.13;;;3.00;;
67715;SDS011;54508;43.238;25.306;2024-01-30T13:22:47;7.75;;;3.58;;
67715;SDS011;54508;43.238;25.306;2024-01-30T13:25:14;4.32;;;3.10;;
67715;SDS011;54508;43.238;25.306;2024-01-30T13:27:39;3.70;;;2.90;;
67715;SDS011;54508;43.238;25.306;2024-01-30T13:30:06;8.37;;;3.27;;
67715;SDS011;54508;43.238;25.306;2024-01-30T13:32:32;4.93;;;3.00;;
67715;SDS011;54508;43.238;25.306;2024-01-30T13:34:58;4.80;;;2.80;;
67715;SDS011;54508;43.238;25.306;2024-01-30T13:37:23;3.97;;;3.05;;
67715;SDS011;54508;43.238;25.306;2024-01-30T13:39:49;4.77;;;2.60;;
67715;SDS011;54508;43.238;25.306;2024-01-30T13:42:14;4.67;;;2.77;;
67715;SDS011;54508;43.238;25.306;2024-01-30T13:44:40;3.78;;;2.90;;
67715;SDS011;54508;43.238;25.306;2024-01-30T13:47:08;4.45;;;3.22;;
67715;SDS011;54508;43.238;25.306;2024-01-30T13:49:33;4.40;;;2.97;;
67715;SDS011;54508;43.238;25.306;2024-01-30T13:51:59;5.73;;;2.70;;
67715;SDS011;54508;43.238;25.306;2024-01-30T13:54:24;3.53;;;2.70;;
67715;SDS011;54508;43.238;25.306;2024-01-30T13:56:50;2.97;;;1.88;;
67715;SDS011;54508;43.238;25.306;2024-01-30T13:59:15;2.67;;;2.10;;
67715;SDS011;54508;43.238;25.306;2024-01-30T14:01:47;5.47;;;2.90;;
67715;SDS011;54508;43.238;25.306;2024-01-30T14:04:13;4.20;;;3.30;;
67715;SDS011;54508;43.238;25.306;2024-01-30T14:06:39;6.60;;;3.05;;
67715;SDS011;54508;43.238;25.306;2024-01-30T14:09:05;6.18;;;3.00;;
67715;SDS011;54508;43.238;25.306;2024-01-30T14:11:31;5.33;;;2.63;;
67715;SDS011;54508;43.238;25.306;2024-01-30T14:13:56;5.55;;;2.90;;
67715;SDS011;54508;43.238;25.306;2024-01-30T14:16:22;4.90;;;3.40;;
67715;SDS011;54508;43.238;25.306;2024-01-30T14:18:49;7.72;;;3.80;;
67715;SDS011;54508;43.238;25.306;2024-01-30T14:21:15;6.07;;;3.23;;
67715;SDS011;54508;43.238;25.306;2024-01-30T14:23:40;4.53;;;2.97;;
67715;SDS011;54508;43.238;25.306;2024-01-30T14:26:06;5.18;;;4.22;;